sensor_id;sensor_type;location;lat;lon;timestamp;pressure;altitude;pressure_sealevel;temperature;humidity
71105;BME280;58760;48.716;8.962;2023-04-03T00:00:57;97162.09;;;3.27;76.39
71105;BME280;58760;48.716;8.962;2023-04-03T00:03:22;97156.09;;;3.49;75.50
71105;BME280;58760;48.716;8.962;2023-04-03T00:05:48;97154.66;;;3.45;74.89
71105;BME280;58760;48.716;8.962;2023-04-03T00:08:13;97156.22;;;3.47;74.16
71105;BME280;58760;48.716;8.962;2023-04-03T00:10:39;97158.34;;;3.42;75.58
71105;BME280;58760;48.716;8.962;2023-04-03T00:13:06;97161.97;;;3.29;75.05
71105;BME280;58760;48.716;8.962;2023-04-03T00:15:32;97148.91;;;3.40;75.01
71105;BME280;58760;48.716;8.962;2023-04-03T00:17:57;97150.38;;;3.44;74.77
71105;BME280;58760;48.716;8.962;2023-04-03T00:20:23;97159.13;;;3.32;75.23
71105;BME280;58760;48.716;8.962;2023-04-03T00:22:48;97152.94;;;3.33;75.39
71105;BME280;58760;48.716;8.962;2023-04-03T00:25:13;97157.41;;;3.20;75.68
71105;BME280;58760;48.716;8.962;2023-04-03T00:27:40;97162.88;;;3.16;76.12
71105;BME280;58760;48.716;8.962;2023-04-03T00:30:08;97160.38;;;3.15;76.38
71105;BME280;58760;48.716;8.962;2023-04-03T00:32:35;97160.72;;;3.34;74.87
71105;BME280;58760;48.716;8.962;2023-04-03T00:35:01;97160.53;;;3.25;75.27
71105;BME280;58760;48.716;8.962;2023-04-03T00:37:26;97154.69;;;3.21;76.55
71105;BME280;58760;48.716;8.962;2023-04-03T00:39:52;97158.69;;;3.14;75.90
71105;BME280;58760;48.716;8.962;2023-04-03T00:42:17;97158.03;;;3.23;75.60
71105;BME280;58760;48.716;8.962;2023-04-03T00:47:11;97147.75;;;3.20;75.02
71105;BME280;58760;48.716;8.962;2023-04-03T00:49:39;97154.06;;;3.17;75.72
71105;BME280;58760;48.716;8.962;2023-04-03T00:52:10;97146.91;;;3.20;75.81
71105;BME280;58760;48.716;8.962;2023-04-03T00:54:38;97146.91;;;3.20;75.54
71105;BME280;58760;48.716;8.962;2023-04-03T00:57:05;97147.50;;;3.12;75.46
71105;BME280;58760;48.716;8.962;2023-04-03T00:59:34;97147.81;;;3.07;76.11
71105;BME280;58760;48.716;8.962;2023-04-03T01:02:01;97152.84;;;3.10;76.11
71105;BME280;58760;48.716;8.962;2023-04-03T01:04:32;97145.59;;;3.14;75.67
71105;BME280;58760;48.716;8.962;2023-04-03T01:07:04;97146.97;;;3.07;76.76
71105;BME280;58760;48.716;8.962;2023-04-03T01:09:31;97153.84;;;3.21;75.78
71105;BME280;58760;48.716;8.962;2023-04-03T01:14:42;97159.59;;;3.02;76.92
71105;BME280;58760;48.716;8.962;2023-04-03T01:23:02;97159.81;;;2.99;76.05
71105;BME280;58760;48.716;8.962;2023-04-03T01:25:34;97156.69;;;2.94;75.89
71105;BME280;58760;48.716;8.962;2023-04-03T01:28:02;97157.22;;;2.86;76.58
71105;BME280;58760;48.716;8.962;2023-04-03T01:30:33;97160.84;;;2.96;76.85
71105;BME280;58760;48.716;8.962;2023-04-03T01:32:59;97157.28;;;2.97;76.26
71105;BME280;58760;48.716;8.962;2023-04-03T01:35:25;97157.69;;;3.04;76.23
71105;BME280;58760;48.716;8.962;2023-04-03T01:37:50;97159.22;;;2.95;75.52
71105;BME280;58760;48.716;8.962;2023-04-03T01:40:16;97162.38;;;2.88;76.89
71105;BME280;58760;48.716;8.962;2023-04-03T01:42:41;97163.31;;;2.87;76.96
71105;BME280;58760;48.716;8.962;2023-04-03T01:45:07;97168.06;;;2.82;76.84
71105;BME280;58760;48.716;8.962;2023-04-03T01:47:32;97158.47;;;2.93;76.94
71105;BME280;58760;48.716;8.962;2023-04-03T01:49:58;97161.75;;;2.84;77.20
71105;BME280;58760;48.716;8.962;2023-04-03T01:52:23;97166.78;;;2.87;77.02
71105;BME280;58760;48.716;8.962;2023-04-03T01:54:48;97168.16;;;2.80;77.32
71105;BME280;58760;48.716;8.962;2023-04-03T01:57:14;97166.16;;;2.84;77.07
71105;BME280;58760;48.716;8.962;2023-04-03T01:59:40;97160.81;;;2.85;77.03
71105;BME280;58760;48.716;8.962;2023-04-03T02:02:05;97157.84;;;2.66;77.20
71105;BME280;58760;48.716;8.962;2023-04-03T02:04:31;97165.47;;;2.69;78.04
71105;BME280;58760;48.716;8.962;2023-04-03T02:06:56;97156.56;;;2.72;77.72
71105;BME280;58760;48.716;8.962;2023-04-03T02:09:22;97167.97;;;2.71;77.55
71105;BME280;58760;48.716;8.962;2023-04-03T02:11:47;97161.13;;;2.81;76.91
71105;BME280;58760;48.716;8.962;2023-04-03T02:14:13;97160.22;;;2.69;77.64
71105;BME280;58760;48.716;8.962;2023-04-03T02:16:38;97166.38;;;2.81;76.40
71105;BME280;58760;48.716;8.962;2023-04-03T02:19:03;97165.75;;;2.77;77.10
71105;BME280;58760;48.716;8.962;2023-04-03T02:21:29;97161.78;;;2.72;76.55
71105;BME280;58760;48.716;8.962;2023-04-03T02:23:54;97164.44;;;2.59;77.40
71105;BME280;58760;48.716;8.962;2023-04-03T02:26:20;97172.94;;;2.62;76.80
71105;BME280;58760;48.716;8.962;2023-04-03T02:28:48;97171.97;;;2.63;76.59
71105;BME280;58760;48.716;8.962;2023-04-03T02:31:16;97169.44;;;2.75;77.38
71105;BME280;58760;48.716;8.962;2023-04-03T02:33:41;97174.28;;;2.68;77.21
71105;BME280;58760;48.716;8.962;2023-04-03T02:36:08;97172.91;;;2.75;76.32
71105;BME280;58760;48.716;8.962;2023-04-03T02:38:33;97171.25;;;2.61;76.73
71105;BME280;58760;48.716;8.962;2023-04-03T02:41:08;97180.00;;;2.73;76.82
71105;BME280;58760;48.716;8.962;2023-04-03T02:43:34;97181.63;;;2.63;77.53
71105;BME280;58760;48.716;8.962;2023-04-03T02:46:00;97170.72;;;2.69;76.82
71105;BME280;58760;48.716;8.962;2023-04-03T02:48:25;97181.94;;;2.58;76.65
71105;BME280;58760;48.716;8.962;2023-04-03T02:50:51;97172.81;;;2.64;76.30
71105;BME280;58760;48.716;8.962;2023-04-03T02:53:17;97170.53;;;2.59;76.92
71105;BME280;58760;48.716;8.962;2023-04-03T02:55:43;97172.72;;;2.66;76.30
71105;BME280;58760;48.716;8.962;2023-04-03T02:58:09;97171.66;;;2.68;76.04
71105;BME280;58760;48.716;8.962;2023-04-03T03:00:35;97164.09;;;2.63;76.90
71105;BME280;58760;48.716;8.962;2023-04-03T03:03:00;97169.75;;;2.70;75.85
71105;BME280;58760;48.716;8.962;2023-04-03T03:05:27;97176.00;;;2.80;75.02
71105;BME280;58760;48.716;8.962;2023-04-03T03:07:52;97174.75;;;2.73;74.32
71105;BME280;58760;48.716;8.962;2023-04-03T03:10:18;97173.56;;;2.66;74.63
71105;BME280;58760;48.716;8.962;2023-04-03T03:12:43;97166.84;;;2.62;74.88
71105;BME280;58760;48.716;8.962;2023-04-03T03:15:09;97163.56;;;2.71;74.80
71105;BME280;58760;48.716;8.962;2023-04-03T03:17:34;97164.00;;;2.65;74.58
71105;BME280;58760;48.716;8.962;2023-04-03T03:20:02;97168.91;;;2.82;73.13
71105;BME280;58760;48.716;8.962;2023-04-03T03:22:28;97162.41;;;2.75;73.75
71105;BME280;58760;48.716;8.962;2023-04-03T03:24:53;97156.22;;;2.76;72.86
71105;BME280;58760;48.716;8.962;2023-04-03T03:27:18;97162.75;;;2.58;73.66
71105;BME280;58760;48.716;8.962;2023-04-03T03:29:44;97155.94;;;2.68;74.07
71105;BME280;58760;48.716;8.962;2023-04-03T03:32:09;97150.19;;;2.63;73.75
71105;BME280;58760;48.716;8.962;2023-04-03T03:34:35;97149.63;;;2.71;73.15
71105;BME280;58760;48.716;8.962;2023-04-03T03:37:00;97158.47;;;2.70;74.33
71105;BME280;58760;48.716;8.962;2023-04-03T03:39:26;97159.66;;;2.77;73.06
71105;BME280;58760;48.716;8.962;2023-04-03T03:41:51;97151.41;;;2.70;72.96
71105;BME280;58760;48.716;8.962;2023-04-03T03:44:19;97163.69;;;2.70;72.97
71105;BME280;58760;48.716;8.962;2023-04-03T03:46:45;97157.84;;;2.66;73.04
71105;BME280;58760;48.716;8.962;2023-04-03T03:49:10;97155.22;;;2.66;73.42
71105;BME280;58760;48.716;8.962;2023-04-03T03:51:37;97156.25;;;2.63;73.22
71105;BME280;58760;48.716;8.962;2023-04-03T03:54:03;97158.47;;;2.70;73.77
71105;BME280;58760;48.716;8.962;2023-04-03T03:56:28;97153.41;;;2.79;73.68
71105;BME280;58760;48.716;8.962;2023-04-03T03:58:54;97153.81;;;2.73;73.00
71105;BME280;58760;48.716;8.962;2023-04-03T04:01:22;97156.56;;;2.72;72.38
71105;BME280;58760;48.716;8.962;2023-04-03T04:03:48;97162.63;;;2.72;72.53
71105;BME280;58760;48.716;8.962;2023-04-03T04:06:13;97161.16;;;2.68;72.74
71105;BME280;58760;48.716;8.962;2023-04-03T04:08:39;97159.16;;;2.72;72.15
71105;BME280;58760;48.716;8.962;2023-04-03T04:11:04;97161.38;;;2.65;72.49
71105;BME280;58760;48.716;8.962;2023-04-03T04:13:30;97162.31;;;2.64;72.53
71105;BME280;58760;48.716;8.962;2023-04-03T04:15:56;97162.53;;;2.61;73.03
71105;BME280;58760;48.716;8.962;2023-04-03T04:18:21;97166.22;;;2.58;73.33
71105;BME280;58760;48.716;8.962;2023-04-03T04:20:48;97161.81;;;2.59;73.48
71105;BME280;58760;48.716;8.962;2023-04-03T04:23:13;97162.09;;;2.67;73.39
71105;BME280;58760;48.716;8.962;2023-04-03T04:25:39;97167.66;;;2.75;72.84
71105;BME280;58760;48.716;8.962;2023-04-03T04:28:05;97171.06;;;2.88;71.96
71105;BME280;58760;48.716;8.962;2023-04-03T04:30:30;97172.06;;;2.75;71.66
71105;BME280;58760;48.716;8.962;2023-04-03T04:32:56;97171.13;;;2.76;72.01
71105;BME280;58760;48.716;8.962;2023-04-03T04:35:21;97168.75;;;2.60;72.00
71105;BME280;58760;48.716;8.962;2023-04-03T04:37:46;97177.53;;;2.59;72.85
71105;BME280;58760;48.716;8.962;2023-04-03T04:40:12;97169.25;;;2.65;72.68
71105;BME280;58760;48.716;8.962;2023-04-03T04:42:37;97163.66;;;2.82;71.57
71105;BME280;58760;48.716;8.962;2023-04-03T04:45:02;97159.34;;;2.81;72.07
71105;BME280;58760;48.716;8.962;2023-04-03T04:47:29;97164.28;;;2.73;72.11
71105;BME280;58760;48.716;8.962;2023-04-03T04:49:54;97159.56;;;2.78;72.30
71105;BME280;58760;48.716;8.962;2023-04-03T04:52:20;97166.28;;;2.82;71.37
71105;BME280;58760;48.716;8.962;2023-04-03T04:54:45;97174.63;;;2.87;70.58
71105;BME280;58760;48.716;8.962;2023-04-03T04:57:11;97173.38;;;2.80;71.16
71105;BME280;58760;48.716;8.962;2023-04-03T04:59:36;97167.88;;;2.72;71.16
71105;BME280;58760;48.716;8.962;2023-04-03T05:02:02;97178.56;;;2.69;71.34
71105;BME280;58760;48.716;8.962;2023-04-03T05:04:27;97182.75;;;2.72;71.65
71105;BME280;58760;48.716;8.962;2023-04-03T05:06:52;97188.06;;;2.83;70.80
71105;BME280;58760;48.716;8.962;2023-04-03T05:09:18;97181.44;;;2.90;70.04
71105;BME280;58760;48.716;8.962;2023-04-03T05:11:45;97188.47;;;2.89;69.54
71105;BME280;58760;48.716;8.962;2023-04-03T05:14:11;97190.69;;;2.83;69.97
71105;BME280;58760;48.716;8.962;2023-04-03T05:16:36;97190.06;;;2.79;70.88
71105;BME280;58760;48.716;8.962;2023-04-03T05:19:01;97187.88;;;2.86;70.06
71105;BME280;58760;48.716;8.962;2023-04-03T05:21:27;97188.34;;;2.91;69.10
71105;BME280;58760;48.716;8.962;2023-04-03T05:23:57;97193.63;;;2.78;70.04
71105;BME280;58760;48.716;8.962;2023-04-03T05:26:22;97183.63;;;2.96;68.58
71105;BME280;58760;48.716;8.962;2023-04-03T05:28:48;97181.22;;;2.93;69.16
71105;BME280;58760;48.716;8.962;2023-04-03T05:31:13;97192.13;;;2.87;69.18
71105;BME280;58760;48.716;8.962;2023-04-03T05:33:38;97191.09;;;2.89;69.51
71105;BME280;58760;48.716;8.962;2023-04-03T05:36:04;97191.50;;;2.96;68.60
71105;BME280;58760;48.716;8.962;2023-04-03T05:38:30;97184.53;;;3.07;67.18
71105;BME280;58760;48.716;8.962;2023-04-03T05:40:56;97194.50;;;3.02;67.37
71105;BME280;58760;48.716;8.962;2023-04-03T05:43:21;97192.44;;;2.95;69.21
71105;BME280;58760;48.716;8.962;2023-04-03T05:45:47;97195.81;;;3.21;67.19
71105;BME280;58760;48.716;8.962;2023-04-03T05:48:13;97201.50;;;3.14;65.39
71105;BME280;58760;48.716;8.962;2023-04-03T05:50:38;97193.28;;;3.19;65.27
71105;BME280;58760;48.716;8.962;2023-04-03T05:53:07;97201.44;;;3.27;65.45
71105;BME280;58760;48.716;8.962;2023-04-03T05:55:35;97209.56;;;3.35;65.22
71105;BME280;58760;48.716;8.962;2023-04-03T05:58:01;97202.44;;;3.37;64.87
71105;BME280;58760;48.716;8.962;2023-04-03T06:00:26;97200.66;;;3.38;64.58
71105;BME280;58760;48.716;8.962;2023-04-03T06:02:52;97204.47;;;3.45;65.85
71105;BME280;58760;48.716;8.962;2023-04-03T06:05:18;97205.03;;;3.61;64.38
71105;BME280;58760;48.716;8.962;2023-04-03T06:07:43;97203.72;;;3.32;64.18
71105;BME280;58760;48.716;8.962;2023-04-03T06:10:11;97209.34;;;3.38;64.56
71105;BME280;58760;48.716;8.962;2023-04-03T06:12:37;97205.28;;;3.10;65.72
71105;BME280;58760;48.716;8.962;2023-04-03T06:15:03;97199.81;;;3.13;65.31
71105;BME280;58760;48.716;8.962;2023-04-03T06:17:28;97206.97;;;3.11;66.14
71105;BME280;58760;48.716;8.962;2023-04-03T06:19:54;97220.34;;;3.20;65.68
71105;BME280;58760;48.716;8.962;2023-04-03T06:22:20;97215.97;;;3.07;65.76
71105;BME280;58760;48.716;8.962;2023-04-03T06:24:46;97218.28;;;3.12;65.76
71105;BME280;58760;48.716;8.962;2023-04-03T06:27:12;97221.66;;;3.01;66.63
71105;BME280;58760;48.716;8.962;2023-04-03T06:29:37;97217.81;;;2.94;65.72
71105;BME280;58760;48.716;8.962;2023-04-03T06:32:02;97222.13;;;2.95;65.63
71105;BME280;58760;48.716;8.962;2023-04-03T06:34:28;97218.91;;;2.79;67.43
71105;BME280;58760;48.716;8.962;2023-04-03T06:36:53;97214.25;;;2.95;66.78
71105;BME280;58760;48.716;8.962;2023-04-03T06:39:20;97222.91;;;3.08;67.06
71105;BME280;58760;48.716;8.962;2023-04-03T06:41:48;97224.97;;;3.16;66.14
71105;BME280;58760;48.716;8.962;2023-04-03T06:44:13;97223.88;;;3.31;65.72
71105;BME280;58760;48.716;8.962;2023-04-03T06:46:41;97231.56;;;3.45;65.08
71105;BME280;58760;48.716;8.962;2023-04-03T06:49:06;97229.78;;;3.46;64.68
71105;BME280;58760;48.716;8.962;2023-04-03T06:51:36;97222.66;;;3.48;65.08
71105;BME280;58760;48.716;8.962;2023-04-03T06:54:03;97229.00;;;3.56;65.42
71105;BME280;58760;48.716;8.962;2023-04-03T06:56:28;97236.34;;;3.51;65.70
71105;BME280;58760;48.716;8.962;2023-04-03T06:58:55;97221.38;;;3.64;63.72
71105;BME280;58760;48.716;8.962;2023-04-03T07:01:23;97216.53;;;3.71;63.88
71105;BME280;58760;48.716;8.962;2023-04-03T07:03:49;97223.31;;;3.62;64.70
71105;BME280;58760;48.716;8.962;2023-04-03T07:06:15;97227.78;;;3.84;64.65
71105;BME280;58760;48.716;8.962;2023-04-03T07:08:43;97230.13;;;4.00;62.85
71105;BME280;58760;48.716;8.962;2023-04-03T07:11:10;97225.25;;;4.06;63.92
71105;BME280;58760;48.716;8.962;2023-04-03T07:13:36;97228.13;;;4.14;63.54
71105;BME280;58760;48.716;8.962;2023-04-03T07:16:03;97231.72;;;4.25;63.90
71105;BME280;58760;48.716;8.962;2023-04-03T07:18:30;97235.78;;;4.40;63.80
71105;BME280;58760;48.716;8.962;2023-04-03T07:20:56;97234.28;;;4.48;63.42
71105;BME280;58760;48.716;8.962;2023-04-03T07:23:21;97239.63;;;4.47;63.89
71105;BME280;58760;48.716;8.962;2023-04-03T07:25:48;97232.13;;;4.64;62.01
71105;BME280;58760;48.716;8.962;2023-04-03T07:28:15;97239.03;;;4.54;62.90
71105;BME280;58760;48.716;8.962;2023-04-03T07:30:45;97237.25;;;4.44;63.40
71105;BME280;58760;48.716;8.962;2023-04-03T07:33:12;97247.28;;;4.50;62.57
71105;BME280;58760;48.716;8.962;2023-04-03T07:35:39;97243.69;;;4.51;62.59
71105;BME280;58760;48.716;8.962;2023-04-03T07:38:04;97245.38;;;4.63;62.12
71105;BME280;58760;48.716;8.962;2023-04-03T07:40:31;97250.41;;;4.55;63.02
71105;BME280;58760;48.716;8.962;2023-04-03T07:42:56;97247.41;;;4.59;63.91
71105;BME280;58760;48.716;8.962;2023-04-03T07:45:22;97247.78;;;4.77;62.64
71105;BME280;58760;48.716;8.962;2023-04-03T07:47:48;97246.34;;;4.84;61.28
71105;BME280;58760;48.716;8.962;2023-04-03T07:50:13;97262.38;;;4.81;62.19
71105;BME280;58760;48.716;8.962;2023-04-03T07:52:39;97256.38;;;4.68;62.72
71105;BME280;58760;48.716;8.962;2023-04-03T07:55:05;97252.44;;;4.73;62.92
71105;BME280;58760;48.716;8.962;2023-04-03T07:57:31;97255.19;;;4.83;63.00
71105;BME280;58760;48.716;8.962;2023-04-03T07:59:56;97261.38;;;5.04;61.39
71105;BME280;58760;48.716;8.962;2023-04-03T08:02:22;97261.16;;;4.96;61.92
71105;BME280;58760;48.716;8.962;2023-04-03T08:04:47;97261.50;;;5.03;63.51
71105;BME280;58760;48.716;8.962;2023-04-03T08:07:12;97262.59;;;5.00;61.87
71105;BME280;58760;48.716;8.962;2023-04-03T08:09:38;97264.50;;;5.09;61.86
71105;BME280;58760;48.716;8.962;2023-04-03T08:12:03;97253.38;;;5.17;61.83
71105;BME280;58760;48.716;8.962;2023-04-03T08:14:31;97255.66;;;4.99;61.92
71105;BME280;58760;48.716;8.962;2023-04-03T08:16:56;97267.78;;;5.45;60.88
71105;BME280;58760;48.716;8.962;2023-04-03T08:19:22;97259.19;;;5.43;60.18
71105;BME280;58760;48.716;8.962;2023-04-03T08:21:47;97260.28;;;5.18;60.88
71105;BME280;58760;48.716;8.962;2023-04-03T08:24:13;97264.72;;;5.28;60.19
71105;BME280;58760;48.716;8.962;2023-04-03T08:26:38;97267.34;;;5.28;60.24
71105;BME280;58760;48.716;8.962;2023-04-03T08:29:03;97266.97;;;5.33;59.88
71105;BME280;58760;48.716;8.962;2023-04-03T08:31:29;97258.16;;;5.23;60.06
71105;BME280;58760;48.716;8.962;2023-04-03T08:33:56;97254.31;;;5.16;60.81
71105;BME280;58760;48.716;8.962;2023-04-03T08:36:27;97263.84;;;5.39;61.26
71105;BME280;58760;48.716;8.962;2023-04-03T08:38:54;97268.28;;;5.39;61.38
71105;BME280;58760;48.716;8.962;2023-04-03T08:41:29;97267.38;;;5.60;60.83
71105;BME280;58760;48.716;8.962;2023-04-03T08:49:40;97276.78;;;5.85;58.78
71105;BME280;58760;48.716;8.962;2023-04-03T08:52:14;97266.59;;;5.80;59.73
71105;BME280;58760;48.716;8.962;2023-04-03T08:54:55;97264.88;;;6.22;58.55
71105;BME280;58760;48.716;8.962;2023-04-03T08:57:33;97270.81;;;6.36;58.11
71105;BME280;58760;48.716;8.962;2023-04-03T09:00:03;97270.47;;;6.29;57.89
71105;BME280;58760;48.716;8.962;2023-04-03T09:02:43;97270.53;;;6.39;57.55
71105;BME280;58760;48.716;8.962;2023-04-03T09:05:13;97270.19;;;6.73;59.15
71105;BME280;58760;48.716;8.962;2023-04-03T09:07:43;97275.28;;;6.45;57.84
71105;BME280;58760;48.716;8.962;2023-04-03T09:10:12;97271.19;;;6.52;56.05
71105;BME280;58760;48.716;8.962;2023-04-03T09:12:42;97277.75;;;6.16;57.60
71105;BME280;58760;48.716;8.962;2023-04-03T09:15:14;97273.25;;;6.69;54.26
71105;BME280;58760;48.716;8.962;2023-04-03T09:20:17;97278.16;;;6.83;57.08
71105;BME280;58760;48.716;8.962;2023-04-03T09:22:45;97279.72;;;6.65;57.72
71105;BME280;58760;48.716;8.962;2023-04-03T09:25:15;97270.41;;;6.61;57.41
71105;BME280;58760;48.716;8.962;2023-04-03T09:27:41;97271.44;;;7.00;57.61
71105;BME280;58760;48.716;8.962;2023-04-03T09:30:17;97269.53;;;7.11;54.75
71105;BME280;58760;48.716;8.962;2023-04-03T09:32:48;97273.03;;;7.12;54.60
71105;BME280;58760;48.716;8.962;2023-04-03T09:37:45;97267.78;;;6.91;56.12
71105;BME280;58760;48.716;8.962;2023-04-03T09:42:56;97270.47;;;7.01;56.85
71105;BME280;58760;48.716;8.962;2023-04-03T09:45:30;97270.59;;;6.99;55.96
71105;BME280;58760;48.716;8.962;2023-04-03T09:48:12;97273.63;;;6.95;55.03
71105;BME280;58760;48.716;8.962;2023-04-03T09:53:41;97271.91;;;6.84;54.24
71105;BME280;58760;48.716;8.962;2023-04-03T09:58:40;97266.03;;;6.71;54.02
71105;BME280;58760;48.716;8.962;2023-04-03T10:01:21;97263.88;;;6.86;55.79
71105;BME280;58760;48.716;8.962;2023-04-03T10:04:03;97265.00;;;6.93;55.79
71105;BME280;58760;48.716;8.962;2023-04-03T10:06:32;97269.16;;;6.86;52.90
71105;BME280;58760;48.716;8.962;2023-04-03T10:09:01;97261.16;;;6.46;54.06
71105;BME280;58760;48.716;8.962;2023-04-03T10:11:30;97269.59;;;6.70;53.83
71105;BME280;58760;48.716;8.962;2023-04-03T10:13:57;97267.09;;;6.89;53.51
71105;BME280;58760;48.716;8.962;2023-04-03T10:16:38;97270.22;;;7.13;54.00
71105;BME280;58760;48.716;8.962;2023-04-03T10:19:19;97262.78;;;7.18;54.46
71105;BME280;58760;48.716;8.962;2023-04-03T10:21:58;97261.16;;;7.36;54.54
71105;BME280;58760;48.716;8.962;2023-04-03T10:24:49;97265.66;;;7.15;53.33
71105;BME280;58760;48.716;8.962;2023-04-03T10:30:33;97266.38;;;7.17;53.63
71105;BME280;58760;48.716;8.962;2023-04-03T10:36:09;97261.91;;;7.08;53.44
71105;BME280;58760;48.716;8.962;2023-04-03T10:46:48;97264.66;;;7.07;51.33
71105;BME280;58760;48.716;8.962;2023-04-03T10:49:41;97272.72;;;6.75;53.90
71105;BME280;58760;48.716;8.962;2023-04-03T10:57:40;97263.19;;;6.21;54.21
71105;BME280;58760;48.716;8.962;2023-04-03T11:00:06;97257.63;;;6.36;55.12
71105;BME280;58760;48.716;8.962;2023-04-03T11:02:59;97255.94;;;6.76;52.45
71105;BME280;58760;48.716;8.962;2023-04-03T11:05:39;97265.56;;;6.96;51.93
71105;BME280;58760;48.716;8.962;2023-04-03T11:10:57;97249.75;;;6.96;52.44
71105;BME280;58760;48.716;8.962;2023-04-03T11:13:31;97258.88;;;6.82;51.53
71105;BME280;58760;48.716;8.962;2023-04-03T11:15:58;97258.31;;;6.58;54.46
71105;BME280;58760;48.716;8.962;2023-04-03T11:18:46;97262.84;;;6.47;54.95
71105;BME280;58760;48.716;8.962;2023-04-03T11:21:18;97257.31;;;6.50;53.47
71105;BME280;58760;48.716;8.962;2023-04-03T11:23:46;97255.50;;;6.29;54.28
71105;BME280;58760;48.716;8.962;2023-04-03T11:26:18;97253.03;;;6.38;54.38
71105;BME280;58760;48.716;8.962;2023-04-03T11:28:44;97259.47;;;6.65;53.72
71105;BME280;58760;48.716;8.962;2023-04-03T11:31:26;97252.63;;;6.32;53.88
71105;BME280;58760;48.716;8.962;2023-04-03T11:34:24;97253.56;;;6.52;54.03
71105;BME280;58760;48.716;8.962;2023-04-03T11:36:55;97249.97;;;6.32;54.99
71105;BME280;58760;48.716;8.962;2023-04-03T11:39:25;97258.44;;;6.57;53.99
71105;BME280;58760;48.716;8.962;2023-04-03T11:41:52;97249.31;;;6.61;53.51
71105;BME280;58760;48.716;8.962;2023-04-03T11:44:32;97243.34;;;6.59;52.41
71105;BME280;58760;48.716;8.962;2023-04-03T11:47:00;97246.81;;;6.39;53.29
71105;BME280;58760;48.716;8.962;2023-04-03T11:50:01;97244.38;;;6.47;53.18
71105;BME280;58760;48.716;8.962;2023-04-03T12:05:57;97227.31;;;6.51;51.24
71105;BME280;58760;48.716;8.962;2023-04-03T12:16:26;97229.31;;;6.38;51.02
71105;BME280;58760;48.716;8.962;2023-04-03T12:22:07;97224.56;;;6.52;51.45
71105;BME280;58760;48.716;8.962;2023-04-03T12:26:40;97219.38;;;6.71;51.14
71105;BME280;58760;48.716;8.962;2023-04-03T12:40:22;97215.09;;;7.10;48.99
71105;BME280;58760;48.716;8.962;2023-04-03T12:46:07;97209.59;;;6.93;49.31
71105;BME280;58760;48.716;8.962;2023-04-03T12:48:57;97210.34;;;7.04;47.89
71105;BME280;58760;48.716;8.962;2023-04-03T12:51:28;97214.53;;;7.16;48.77
71105;BME280;58760;48.716;8.962;2023-04-03T12:54:01;97211.50;;;7.11;48.02
71105;BME280;58760;48.716;8.962;2023-04-03T12:56:29;97219.63;;;6.89;48.94
71105;BME280;58760;48.716;8.962;2023-04-03T13:01:41;97211.25;;;6.84;48.50
71105;BME280;58760;48.716;8.962;2023-04-03T13:04:07;97205.34;;;7.01;49.03
71105;BME280;58760;48.716;8.962;2023-04-03T13:06:39;97207.09;;;7.31;48.88
71105;BME280;58760;48.716;8.962;2023-04-03T13:09:14;97201.81;;;7.31;48.11
71105;BME280;58760;48.716;8.962;2023-04-03T13:11:44;97193.94;;;7.60;46.52
71105;BME280;58760;48.716;8.962;2023-04-03T13:14:16;97205.97;;;7.33;48.01
71105;BME280;58760;48.716;8.962;2023-04-03T13:16:42;97198.09;;;7.91;46.13
71105;BME280;58760;48.716;8.962;2023-04-03T13:19:16;97198.19;;;7.51;47.32
71105;BME280;58760;48.716;8.962;2023-04-03T13:21:42;97203.94;;;7.56;47.57
71105;BME280;58760;48.716;8.962;2023-04-03T13:24:09;97202.97;;;7.48;48.09
71105;BME280;58760;48.716;8.962;2023-04-03T13:26:35;97199.25;;;7.10;47.62
71105;BME280;58760;48.716;8.962;2023-04-03T13:29:07;97195.97;;;7.27;48.27
71105;BME280;58760;48.716;8.962;2023-04-03T13:31:35;97196.09;;;7.26;49.03
71105;BME280;58760;48.716;8.962;2023-04-03T13:34:12;97198.44;;;7.19;47.75
71105;BME280;58760;48.716;8.962;2023-04-03T13:36:55;97197.09;;;7.44;49.19
71105;BME280;58760;48.716;8.962;2023-04-03T13:39:27;97194.59;;;7.71;48.01
71105;BME280;58760;48.716;8.962;2023-04-03T13:41:55;97189.28;;;8.10;45.66
71105;BME280;58760;48.716;8.962;2023-04-03T13:46:55;97164.28;;;13.24;36.60
71105;BME280;58760;48.716;8.962;2023-04-03T13:49:38;97172.66;;;12.26;37.15
71105;BME280;58760;48.716;8.962;2023-04-03T13:54:51;97177.09;;;10.43;37.57
71105;BME280;58760;48.716;8.962;2023-04-03T13:57:17;97169.59;;;10.38;38.69
71105;BME280;58760;48.716;8.962;2023-04-03T13:59:43;97168.03;;;11.79;39.48
71105;BME280;58760;48.716;8.962;2023-04-03T14:07:03;97158.19;;;11.64;35.38
71105;BME280;58760;48.716;8.962;2023-04-03T14:09:28;97162.72;;;10.54;37.84
71105;BME280;58760;48.716;8.962;2023-04-03T14:12:01;97167.06;;;9.76;41.00
71105;BME280;58760;48.716;8.962;2023-04-03T14:14:31;97170.94;;;9.01;41.88
71105;BME280;58760;48.716;8.962;2023-04-03T14:17:00;97173.97;;;8.79;42.95
71105;BME280;58760;48.716;8.962;2023-04-03T14:19:30;97171.94;;;9.00;43.12
71105;BME280;58760;48.716;8.962;2023-04-03T14:21:56;97173.34;;;8.94;40.64
71105;BME280;58760;48.716;8.962;2023-04-03T14:24:23;97166.41;;;9.38;40.50
71105;BME280;58760;48.716;8.962;2023-04-03T14:26:51;97167.47;;;9.45;42.17
71105;BME280;58760;48.716;8.962;2023-04-03T14:29:18;97157.25;;;9.51;39.70
71105;BME280;58760;48.716;8.962;2023-04-03T14:31:45;97162.31;;;8.99;40.99
71105;BME280;58760;48.716;8.962;2023-04-03T14:34:15;97164.19;;;9.16;41.97
71105;BME280;58760;48.716;8.962;2023-04-03T14:36:43;97168.03;;;9.22;39.72
71105;BME280;58760;48.716;8.962;2023-04-03T14:39:16;97159.56;;;8.64;41.85
71105;BME280;58760;48.716;8.962;2023-04-03T14:41:43;97164.25;;;8.33;41.93
71105;BME280;58760;48.716;8.962;2023-04-03T14:44:09;97161.19;;;8.18;42.57
71105;BME280;58760;48.716;8.962;2023-04-03T14:46:36;97169.81;;;8.20;41.65
71105;BME280;58760;48.716;8.962;2023-04-03T14:49:03;97163.31;;;7.96;41.99
71105;BME280;58760;48.716;8.962;2023-04-03T14:51:33;97159.56;;;7.88;43.14
71105;BME280;58760;48.716;8.962;2023-04-03T14:53:58;97158.69;;;8.07;42.74
71105;BME280;58760;48.716;8.962;2023-04-03T14:56:28;97158.44;;;8.01;42.28
71105;BME280;58760;48.716;8.962;2023-04-03T14:58:59;97155.69;;;7.83;44.56
71105;BME280;58760;48.716;8.962;2023-04-03T15:01:26;97152.47;;;7.89;44.69